AVA216 SKBO-KMCO
Flight info
| Callsign | AVA216 |
|---|---|
| Flight time | N/A |
| Altitude | 36000 |
| Route | OSUSU4R GIKPU UQ120 DIBAM DCT KAGEM UL417 LENAX UL795 ALTIB UM779 ZEUSS Y217 OCTAL MUNGI1 |
| Aircraft | A320/M-SDE3FGHIRWY/LB1 |
Departure
| Time | N/A |
|---|---|
| Airport | El Dorado International Airport (SKBO) |
Arrival
| Time | 2026-04-25 18:11 |
|---|---|
| Airport | Orlando International Airport (KMCO) |
| Time | Latitude | Longitude | Altitude | Speed | Heading |
|---|---|---|---|---|---|
| 2026-04-25 15:53 | 14.11135 | -75.42846 | 35983 ft | 471 kts | 341° |
| 2026-04-25 15:53 | 14.14334 | -75.43673 | 35983 ft | 471 kts | 341° |
| 2026-04-25 15:54 | 14.20699 | -75.45315 | 35983 ft | 471 kts | 341° |
| 2026-04-25 15:54 | 14.27051 | -75.46959 | 35986 ft | 470 kts | 341° |
| 2026-04-25 15:55 | 14.33359 | -75.48583 | 35989 ft | 470 kts | 341° |
| 2026-04-25 15:55 | 14.39714 | -75.50219 | 35991 ft | 470 kts | 341° |
| 2026-04-25 15:56 | 14.46057 | -75.51866 | 35992 ft | 470 kts | 341° |
| 2026-04-25 15:56 | 14.52397 | -75.53498 | 35992 ft | 470 kts | 341° |
| 2026-04-25 15:57 | 14.58745 | -75.55128 | 35990 ft | 469 kts | 341° |
| 2026-04-25 15:57 | 14.65079 | -75.56766 | 35985 ft | 469 kts | 341° |
| 2026-04-25 15:58 | 14.71406 | -75.58410 | 35990 ft | 469 kts | 341° |
| 2026-04-25 15:58 | 14.77738 | -75.60057 | 35994 ft | 468 kts | 341° |
| 2026-04-25 15:59 | 14.84061 | -75.61692 | 35997 ft | 468 kts | 341° |
| 2026-04-25 15:59 | 14.90351 | -75.63320 | 35991 ft | 468 kts | 341° |
| 2026-04-25 16:00 | 14.94570 | -75.64416 | 35992 ft | 468 kts | 341° |
| 2026-04-25 16:00 | 15.02947 | -75.66659 | 35999 ft | 466 kts | 339° |
| 2026-04-25 16:01 | 15.09143 | -75.68636 | 36000 ft | 463 kts | 338° |
| 2026-04-25 16:01 | 15.15244 | -75.70690 | 35999 ft | 463 kts | 338° |
| 2026-04-25 16:02 | 15.21375 | -75.72709 | 36001 ft | 463 kts | 338° |
| 2026-04-25 16:02 | 15.27530 | -75.74681 | 35999 ft | 462 kts | 339° |
| 2026-04-25 16:03 | 15.33680 | -75.76642 | 36001 ft | 462 kts | 338° |
| 2026-04-25 16:03 | 15.39804 | -75.78606 | 36006 ft | 461 kts | 338° |
| 2026-04-25 16:04 | 15.45935 | -75.80578 | 36000 ft | 460 kts | 338° |
| 2026-04-25 16:04 | 15.52033 | -75.82540 | 35997 ft | 459 kts | 338° |
| 2026-04-25 16:05 | 15.58109 | -75.84495 | 35996 ft | 458 kts | 338° |
| 2026-04-25 16:06 | 15.67240 | -75.87439 | 36002 ft | 457 kts | 338° |
| 2026-04-25 16:06 | 15.73310 | -75.89396 | 35993 ft | 456 kts | 338° |
| 2026-04-25 16:07 | 15.79384 | -75.91355 | 35998 ft | 456 kts | 338° |
| 2026-04-25 16:07 | 15.85395 | -75.93299 | 35997 ft | 455 kts | 338° |
| 2026-04-25 16:08 | 15.91475 | -75.95268 | 35990 ft | 455 kts | 338° |
| 2026-04-25 16:08 | 15.97493 | -75.97212 | 36002 ft | 455 kts | 338° |
| 2026-04-25 16:09 | 16.03533 | -75.99176 | 35988 ft | 454 kts | 338° |
| 2026-04-25 16:09 | 16.09577 | -76.01136 | 35991 ft | 454 kts | 338° |
| 2026-04-25 16:10 | 16.15616 | -76.03082 | 35988 ft | 454 kts | 338° |
| 2026-04-25 16:10 | 16.21641 | -76.05026 | 35991 ft | 454 kts | 337° |
| 2026-04-25 16:11 | 16.27676 | -76.06989 | 35990 ft | 453 kts | 337° |
| 2026-04-25 16:11 | 16.33690 | -76.08950 | 35993 ft | 453 kts | 337° |
| 2026-04-25 16:12 | 16.39709 | -76.10901 | 35989 ft | 453 kts | 337° |
| 2026-04-25 16:12 | 16.45727 | -76.12856 | 35989 ft | 453 kts | 337° |
| 2026-04-25 16:13 | 16.51739 | -76.14811 | 35987 ft | 452 kts | 337° |
| 2026-04-25 16:13 | 16.57746 | -76.16771 | 35989 ft | 452 kts | 337° |
| 2026-04-25 16:14 | 16.63718 | -76.18716 | 35987 ft | 452 kts | 336° |
| 2026-04-25 16:14 | 16.69701 | -76.20669 | 35982 ft | 452 kts | 336° |
| 2026-04-25 16:15 | 16.75743 | -76.22638 | 35981 ft | 452 kts | 336° |
| 2026-04-25 16:15 | 16.81747 | -76.24594 | 35978 ft | 452 kts | 336° |
| 2026-04-25 16:16 | 16.87770 | -76.26563 | 35978 ft | 453 kts | 336° |
| 2026-04-25 16:16 | 16.93786 | -76.28528 | 35981 ft | 453 kts | 336° |
| 2026-04-25 16:17 | 16.99750 | -76.30505 | 35982 ft | 452 kts | 336° |
| 2026-04-25 16:17 | 17.05744 | -76.32505 | 35983 ft | 452 kts | 336° |
| 2026-04-25 16:18 | 17.11747 | -76.34505 | 35985 ft | 452 kts | 336° |
| 2026-04-25 16:18 | 17.17748 | -76.36492 | 35985 ft | 452 kts | 336° |
| 2026-04-25 16:19 | 17.23755 | -76.38486 | 35987 ft | 452 kts | 336° |
| 2026-04-25 16:19 | 17.29759 | -76.40487 | 35982 ft | 452 kts | 336° |
| 2026-04-25 16:20 | 17.38718 | -76.43473 | 35983 ft | 452 kts | 336° |
| 2026-04-25 16:21 | 17.47697 | -76.46478 | 35986 ft | 452 kts | 336° |
| 2026-04-25 16:21 | 17.53710 | -76.48475 | 35986 ft | 452 kts | 336° |
| 2026-04-25 16:22 | 17.59700 | -76.50472 | 35986 ft | 452 kts | 336° |
| 2026-04-25 16:22 | 17.65688 | -76.52475 | 35985 ft | 451 kts | 336° |
| 2026-04-25 16:23 | 17.71676 | -76.54479 | 35989 ft | 451 kts | 336° |
| 2026-04-25 16:23 | 17.77598 | -76.56464 | 35994 ft | 451 kts | 335° |
| 2026-04-25 16:24 | 17.83579 | -76.58463 | 35994 ft | 451 kts | 335° |
| 2026-04-25 16:24 | 17.89552 | -76.60459 | 35997 ft | 450 kts | 335° |
| 2026-04-25 16:25 | 17.95517 | -76.62455 | 35991 ft | 450 kts | 335° |
| 2026-04-25 16:25 | 18.01477 | -76.64462 | 35995 ft | 450 kts | 335° |
| 2026-04-25 16:26 | 18.07438 | -76.66472 | 35992 ft | 450 kts | 335° |
| 2026-04-25 16:26 | 18.13364 | -76.68456 | 35992 ft | 450 kts | 335° |
| 2026-04-25 16:27 | 18.18383 | -76.70137 | 35987 ft | 449 kts | 335° |
| 2026-04-25 16:27 | 18.24331 | -76.72144 | 35984 ft | 449 kts | 335° |
| 2026-04-25 16:28 | 18.30278 | -76.74151 | 35979 ft | 449 kts | 335° |
| 2026-04-25 16:28 | 18.36223 | -76.76152 | 35978 ft | 448 kts | 335° |
| 2026-04-25 16:29 | 18.42127 | -76.78142 | 35978 ft | 448 kts | 335° |
| 2026-04-25 16:29 | 18.48070 | -76.80147 | 35968 ft | 448 kts | 335° |
| 2026-04-25 16:30 | 18.54005 | -76.82151 | 35972 ft | 448 kts | 335° |
| 2026-04-25 16:30 | 18.59949 | -76.84162 | 35977 ft | 448 kts | 335° |
| 2026-04-25 16:31 | 18.65893 | -76.86171 | 35975 ft | 448 kts | 335° |
| 2026-04-25 16:31 | 18.71842 | -76.88184 | 35981 ft | 448 kts | 334° |
| 2026-04-25 16:32 | 18.77768 | -76.90192 | 35976 ft | 448 kts | 334° |
| 2026-04-25 16:32 | 18.83700 | -76.92204 | 35981 ft | 447 kts | 334° |
| 2026-04-25 16:33 | 18.89604 | -76.94199 | 35981 ft | 447 kts | 334° |
| 2026-04-25 16:33 | 18.95526 | -76.96208 | 35980 ft | 447 kts | 334° |
| 2026-04-25 16:34 | 19.01447 | -76.98220 | 35981 ft | 447 kts | 334° |
| 2026-04-25 16:34 | 19.07372 | -77.00238 | 35982 ft | 447 kts | 334° |
| 2026-04-25 16:35 | 19.13290 | -77.02257 | 35983 ft | 447 kts | 334° |
| 2026-04-25 16:35 | 19.19221 | -77.04273 | 35980 ft | 447 kts | 334° |
| 2026-04-25 16:36 | 19.25136 | -77.06288 | 35981 ft | 447 kts | 334° |
| 2026-04-25 16:36 | 19.31029 | -77.08296 | 35983 ft | 447 kts | 334° |
| 2026-04-25 16:37 | 19.36980 | -77.10272 | 35975 ft | 449 kts | 335° |
| 2026-04-25 16:37 | 19.43030 | -77.12027 | 35972 ft | 451 kts | 337° |
| 2026-04-25 16:38 | 19.49104 | -77.13712 | 35968 ft | 451 kts | 336° |
| 2026-04-25 16:38 | 19.55152 | -77.15440 | 35971 ft | 450 kts | 336° |
| 2026-04-25 16:39 | 19.61197 | -77.17203 | 35970 ft | 450 kts | 336° |
| 2026-04-25 16:39 | 19.67230 | -77.18969 | 35973 ft | 450 kts | 336° |
| 2026-04-25 16:40 | 19.73283 | -77.20736 | 35969 ft | 450 kts | 336° |
| 2026-04-25 16:40 | 19.79329 | -77.22493 | 35974 ft | 450 kts | 336° |
| 2026-04-25 16:41 | 19.85381 | -77.24263 | 35972 ft | 450 kts | 336° |
| 2026-04-25 16:41 | 19.94446 | -77.26921 | 35968 ft | 451 kts | 336° |
| 2026-04-25 16:42 | 20.00469 | -77.28682 | 35963 ft | 451 kts | 336° |
| 2026-04-25 16:42 | 20.06520 | -77.30448 | 35963 ft | 451 kts | 336° |
| 2026-04-25 16:43 | 20.12591 | -77.32220 | 35959 ft | 452 kts | 336° |
| 2026-04-25 16:43 | 20.18661 | -77.33997 | 35955 ft | 452 kts | 336° |
| 2026-04-25 16:44 | 20.24733 | -77.35790 | 35954 ft | 453 kts | 336° |
| 2026-04-25 16:44 | 20.30802 | -77.37577 | 35954 ft | 453 kts | 336° |
| 2026-04-25 16:45 | 20.36857 | -77.39355 | 35948 ft | 454 kts | 336° |
| 2026-04-25 16:45 | 20.42948 | -77.41141 | 35956 ft | 455 kts | 337° |
| 2026-04-25 16:46 | 20.49061 | -77.42926 | 35956 ft | 455 kts | 336° |
| 2026-04-25 16:46 | 20.54134 | -77.44422 | 35958 ft | 455 kts | 336° |
| 2026-04-25 16:47 | 20.61276 | -77.46514 | 35954 ft | 456 kts | 337° |
| 2026-04-25 16:47 | 20.67394 | -77.48256 | 35955 ft | 456 kts | 337° |
| 2026-04-25 16:48 | 20.73552 | -77.50009 | 35955 ft | 456 kts | 337° |
| 2026-04-25 16:48 | 20.79644 | -77.51754 | 35954 ft | 457 kts | 337° |
| 2026-04-25 16:49 | 20.85792 | -77.53518 | 35955 ft | 457 kts | 337° |
| 2026-04-25 16:49 | 20.91947 | -77.55282 | 35953 ft | 458 kts | 337° |
| 2026-04-25 16:50 | 20.98101 | -77.57049 | 35946 ft | 458 kts | 337° |
| 2026-04-25 16:50 | 21.04268 | -77.58822 | 35953 ft | 459 kts | 337° |
| 2026-04-25 16:51 | 21.10448 | -77.60600 | 35956 ft | 459 kts | 338° |
| 2026-04-25 16:51 | 21.15571 | -77.62076 | 35953 ft | 459 kts | 338° |
| 2026-04-25 16:52 | 21.22751 | -77.64149 | 35966 ft | 459 kts | 338° |
| 2026-04-25 16:52 | 21.28936 | -77.65937 | 35977 ft | 460 kts | 338° |
| 2026-04-25 16:53 | 21.38217 | -77.68628 | 35984 ft | 460 kts | 338° |
| 2026-04-25 16:54 | 21.44203 | -77.70869 | 35986 ft | 454 kts | 332° |
| 2026-04-25 16:54 | 21.50093 | -77.73340 | 35982 ft | 454 kts | 331° |
| 2026-04-25 16:55 | 21.55920 | -77.75822 | 35974 ft | 454 kts | 331° |
| 2026-04-25 16:55 | 21.61815 | -77.78321 | 35966 ft | 455 kts | 331° |
| 2026-04-25 16:56 | 21.67733 | -77.80813 | 35968 ft | 456 kts | 331° |
| 2026-04-25 16:56 | 21.73666 | -77.83311 | 35959 ft | 457 kts | 331° |
| 2026-04-25 16:57 | 21.79593 | -77.85819 | 35949 ft | 458 kts | 331° |
| 2026-04-25 16:57 | 21.85509 | -77.88303 | 35877 ft | 459 kts | 332° |
| 2026-04-25 16:58 | 21.91477 | -77.90802 | 35934 ft | 459 kts | 331° |
| 2026-04-25 16:58 | 21.97380 | -77.93312 | 35942 ft | 459 kts | 331° |
| 2026-04-25 16:59 | 22.03334 | -77.95826 | 35952 ft | 460 kts | 331° |
| 2026-04-25 16:59 | 22.09306 | -77.98331 | 35962 ft | 460 kts | 331° |
| 2026-04-25 17:00 | 22.15284 | -78.00843 | 35965 ft | 461 kts | 331° |
| 2026-04-25 17:00 | 22.21264 | -78.03362 | 35966 ft | 461 kts | 331° |
| 2026-04-25 17:01 | 22.27245 | -78.05887 | 35974 ft | 461 kts | 331° |
| 2026-04-25 17:01 | 22.33183 | -78.08399 | 36056 ft | 459 kts | 331° |
| 2026-04-25 17:02 | 22.39131 | -78.10960 | 35917 ft | 460 kts | 331° |
| 2026-04-25 17:02 | 22.45112 | -78.13477 | 35959 ft | 461 kts | 332° |
| 2026-04-25 17:03 | 22.51090 | -78.15973 | 35960 ft | 460 kts | 332° |
| 2026-04-25 17:03 | 22.57040 | -78.18485 | 35963 ft | 459 kts | 331° |
| 2026-04-25 17:04 | 22.62985 | -78.21014 | 35970 ft | 458 kts | 331° |
| 2026-04-25 17:04 | 22.68897 | -78.23541 | 35971 ft | 458 kts | 331° |
| 2026-04-25 17:05 | 22.74785 | -78.26046 | 35977 ft | 458 kts | 331° |
| 2026-04-25 17:05 | 22.83704 | -78.29823 | 35986 ft | 456 kts | 331° |
| 2026-04-25 17:06 | 22.89615 | -78.32345 | 35986 ft | 456 kts | 332° |
| 2026-04-25 17:06 | 22.95513 | -78.34854 | 35989 ft | 455 kts | 332° |
| 2026-04-25 17:07 | 23.01400 | -78.37352 | 35992 ft | 454 kts | 332° |
| 2026-04-25 17:07 | 23.07275 | -78.39839 | 35988 ft | 453 kts | 332° |
| 2026-04-25 17:08 | 23.13101 | -78.42313 | 35989 ft | 451 kts | 332° |
| 2026-04-25 17:08 | 23.18943 | -78.44806 | 35990 ft | 450 kts | 332° |
| 2026-04-25 17:09 | 23.24759 | -78.47294 | 35991 ft | 449 kts | 332° |
| 2026-04-25 17:09 | 23.30540 | -78.49762 | 35992 ft | 448 kts | 332° |
| 2026-04-25 17:10 | 23.36372 | -78.52247 | 35991 ft | 447 kts | 332° |
| 2026-04-25 17:10 | 23.42155 | -78.54715 | 35996 ft | 446 kts | 332° |
| 2026-04-25 17:11 | 23.47893 | -78.57175 | 35992 ft | 445 kts | 332° |
| 2026-04-25 17:11 | 23.53642 | -78.59646 | 36002 ft | 444 kts | 333° |
| 2026-04-25 17:12 | 23.59392 | -78.62111 | 35990 ft | 443 kts | 333° |
| 2026-04-25 17:12 | 23.65128 | -78.64565 | 35988 ft | 442 kts | 333° |
| 2026-04-25 17:13 | 23.68919 | -78.66189 | 35990 ft | 442 kts | 333° |
| 2026-04-25 17:13 | 23.76536 | -78.69463 | 35991 ft | 440 kts | 333° |
| 2026-04-25 17:14 | 23.82225 | -78.71916 | 35994 ft | 440 kts | 333° |
| 2026-04-25 17:14 | 23.87919 | -78.74367 | 35989 ft | 439 kts | 333° |
| 2026-04-25 17:15 | 23.93597 | -78.76811 | 35988 ft | 439 kts | 333° |
| 2026-04-25 17:15 | 23.99277 | -78.79275 | 35986 ft | 437 kts | 330° |
| 2026-04-25 17:16 | 24.04525 | -78.82474 | 35986 ft | 431 kts | 324° |
| 2026-04-25 17:16 | 24.08828 | -78.85246 | 35986 ft | 431 kts | 324° |
| 2026-04-25 17:17 | 24.13994 | -78.88566 | 35984 ft | 431 kts | 324° |
| 2026-04-25 17:17 | 24.19165 | -78.91894 | 35982 ft | 430 kts | 324° |
| 2026-04-25 17:18 | 24.24339 | -78.95217 | 35986 ft | 430 kts | 324° |
| 2026-04-25 17:18 | 24.29500 | -78.98535 | 35985 ft | 430 kts | 324° |
| 2026-04-25 17:19 | 24.34628 | -79.01842 | 35985 ft | 430 kts | 324° |
| 2026-04-25 17:19 | 24.39782 | -79.05181 | 35986 ft | 430 kts | 324° |
| 2026-04-25 17:20 | 24.44940 | -79.08520 | 35988 ft | 429 kts | 324° |
| 2026-04-25 17:20 | 24.50093 | -79.11846 | 35985 ft | 429 kts | 324° |
| 2026-04-25 17:21 | 24.55212 | -79.15156 | 35987 ft | 429 kts | 324° |
| 2026-04-25 17:21 | 24.60347 | -79.18486 | 35987 ft | 428 kts | 324° |
| 2026-04-25 17:22 | 24.64604 | -79.21246 | 35974 ft | 421 kts | 324° |
| 2026-04-25 17:22 | 24.70402 | -79.24999 | 35975 ft | 410 kts | 324° |
| 2026-04-25 17:23 | 24.75309 | -79.28199 | 35978 ft | 409 kts | 324° |
| 2026-04-25 17:23 | 24.80212 | -79.31403 | 35976 ft | 410 kts | 324° |
| 2026-04-25 17:24 | 24.85087 | -79.34581 | 35976 ft | 410 kts | 324° |
| 2026-04-25 17:24 | 24.90032 | -79.37797 | 35976 ft | 410 kts | 324° |
| 2026-04-25 17:25 | 24.94924 | -79.40980 | 35976 ft | 410 kts | 324° |
| 2026-04-25 17:25 | 24.99840 | -79.44185 | 35973 ft | 411 kts | 324° |
| 2026-04-25 17:26 | 25.04761 | -79.47406 | 35971 ft | 411 kts | 324° |
| 2026-04-25 17:26 | 25.09681 | -79.50633 | 35972 ft | 411 kts | 325° |
| 2026-04-25 17:27 | 25.14601 | -79.53853 | 35972 ft | 412 kts | 325° |
| 2026-04-25 17:27 | 25.18702 | -79.56534 | 35975 ft | 412 kts | 325° |
| 2026-04-25 17:28 | 25.24447 | -79.60296 | 35976 ft | 412 kts | 325° |
| 2026-04-25 17:28 | 25.29380 | -79.63538 | 35976 ft | 412 kts | 325° |
| 2026-04-25 17:29 | 25.34312 | -79.66787 | 35970 ft | 412 kts | 325° |
| 2026-04-25 17:29 | 25.39248 | -79.70038 | 35971 ft | 413 kts | 325° |
| 2026-04-25 17:30 | 25.44158 | -79.73272 | 35981 ft | 413 kts | 326° |
| 2026-04-25 17:30 | 25.49090 | -79.76519 | 35979 ft | 413 kts | 326° |
| 2026-04-25 17:31 | 25.54034 | -79.79784 | 35976 ft | 413 kts | 326° |
| 2026-04-25 17:31 | 25.58967 | -79.83050 | 35982 ft | 413 kts | 326° |
| 2026-04-25 17:32 | 25.63907 | -79.86317 | 35981 ft | 413 kts | 326° |
| 2026-04-25 17:32 | 25.68574 | -79.89403 | 35976 ft | 413 kts | 326° |
| 2026-04-25 17:33 | 25.73516 | -79.92663 | 35980 ft | 413 kts | 326° |
| 2026-04-25 17:33 | 25.78434 | -79.95912 | 35946 ft | 416 kts | 326° |
| 2026-04-25 17:34 | 25.80955 | -79.97587 | 35697 ft | 425 kts | 326° |
| 2026-04-25 17:34 | 25.83498 | -79.99281 | 35460 ft | 428 kts | 326° |
| 2026-04-25 17:34 | 25.86055 | -80.00986 | 35217 ft | 430 kts | 326° |
| 2026-04-25 17:34 | 25.88635 | -80.02703 | 34978 ft | 431 kts | 327° |
| 2026-04-25 17:35 | 25.91210 | -80.04415 | 34744 ft | 432 kts | 327° |
| 2026-04-25 17:35 | 25.93784 | -80.06126 | 34513 ft | 433 kts | 327° |
| 2026-04-25 17:35 | 25.96377 | -80.07852 | 34284 ft | 434 kts | 327° |
| 2026-04-25 17:35 | 25.98968 | -80.09582 | 34056 ft | 434 kts | 327° |
| 2026-04-25 17:36 | 26.01566 | -80.11318 | 33804 ft | 435 kts | 327° |
| 2026-04-25 17:36 | 26.04162 | -80.13050 | 33539 ft | 436 kts | 327° |
| 2026-04-25 17:36 | 26.06739 | -80.14769 | 33245 ft | 437 kts | 328° |
| 2026-04-25 17:36 | 26.09391 | -80.16538 | 32183 ft | 443 kts | 328° |
| 2026-04-25 17:37 | 26.11991 | -80.18271 | 31229 ft | 446 kts | 328° |
| 2026-04-25 17:37 | 26.14693 | -80.20058 | 30169 ft | 451 kts | 330° |
| 2026-04-25 17:37 | 26.17532 | -80.21599 | 29223 ft | 454 kts | 334° |
| 2026-04-25 17:37 | 26.20396 | -80.23078 | 28939 ft | 455 kts | 334° |
| 2026-04-25 17:38 | 26.22601 | -80.24221 | 28733 ft | 457 kts | 334° |
| 2026-04-25 17:40 | 26.25025 | -80.25494 | 28532 ft | 455 kts | 334° |
| 2026-04-25 17:40 | 26.27908 | -80.27000 | 28266 ft | 457 kts | 334° |
| 2026-04-25 17:40 | 26.30793 | -80.28503 | 28005 ft | 459 kts | 334° |
| 2026-04-25 17:41 | 26.33687 | -80.30012 | 27757 ft | 460 kts | 334° |
| 2026-04-25 17:41 | 26.36589 | -80.31525 | 27499 ft | 460 kts | 334° |
| 2026-04-25 17:41 | 26.39494 | -80.33037 | 27240 ft | 459 kts | 334° |
| 2026-04-25 17:41 | 26.42379 | -80.34541 | 26987 ft | 457 kts | 334° |
| 2026-04-25 17:42 | 26.45258 | -80.36045 | 26734 ft | 456 kts | 334° |
| 2026-04-25 17:42 | 26.48122 | -80.37543 | 26485 ft | 454 kts | 334° |
| 2026-04-25 17:42 | 26.50982 | -80.39042 | 26234 ft | 453 kts | 334° |
| 2026-04-25 17:42 | 26.53793 | -80.40515 | 26006 ft | 451 kts | 334° |
| 2026-04-25 17:43 | 26.56669 | -80.42022 | 25811 ft | 449 kts | 334° |
| 2026-04-25 17:43 | 26.59459 | -80.43484 | 25646 ft | 448 kts | 334° |
| 2026-04-25 17:43 | 26.62281 | -80.44959 | 25477 ft | 447 kts | 335° |
| 2026-04-25 17:43 | 26.65140 | -80.46317 | 25309 ft | 446 kts | 337° |
| 2026-04-25 17:44 | 26.68049 | -80.47554 | 25145 ft | 446 kts | 339° |
| 2026-04-25 17:44 | 26.70965 | -80.48702 | 24979 ft | 445 kts | 340° |
| 2026-04-25 17:44 | 26.73887 | -80.49822 | 24808 ft | 443 kts | 340° |
| 2026-04-25 17:44 | 26.76808 | -80.50954 | 24649 ft | 442 kts | 339° |
| 2026-04-25 17:45 | 26.79705 | -80.52108 | 24489 ft | 441 kts | 339° |
| 2026-04-25 17:45 | 26.80675 | -80.52501 | 24431 ft | 441 kts | 339° |
| 2026-04-25 17:45 | 26.85442 | -80.54476 | 24172 ft | 439 kts | 338° |
| 2026-04-25 17:45 | 26.88316 | -80.55682 | 24018 ft | 438 kts | 338° |
| 2026-04-25 17:46 | 26.91176 | -80.56882 | 23853 ft | 437 kts | 338° |
| 2026-04-25 17:46 | 26.94023 | -80.58070 | 23698 ft | 437 kts | 338° |
| 2026-04-25 17:46 | 26.96869 | -80.59253 | 23344 ft | 435 kts | 338° |
| 2026-04-25 17:46 | 26.99696 | -80.60425 | 22947 ft | 432 kts | 338° |
| 2026-04-25 17:47 | 27.02514 | -80.61596 | 22550 ft | 430 kts | 338° |
| 2026-04-25 17:47 | 27.05276 | -80.62748 | 22167 ft | 428 kts | 338° |
| 2026-04-25 17:47 | 27.08056 | -80.63906 | 21779 ft | 425 kts | 338° |
| 2026-04-25 17:47 | 27.10829 | -80.65061 | 21392 ft | 423 kts | 338° |
| 2026-04-25 17:48 | 27.16285 | -80.67335 | 20656 ft | 411 kts | 338° |
| 2026-04-25 17:48 | 27.18945 | -80.68445 | 20288 ft | 401 kts | 338° |
| 2026-04-25 17:48 | 27.21529 | -80.69530 | 19925 ft | 391 kts | 338° |
| 2026-04-25 17:49 | 27.24052 | -80.70591 | 19568 ft | 383 kts | 338° |
| 2026-04-25 17:49 | 27.26511 | -80.71623 | 19375 ft | 370 kts | 338° |
| 2026-04-25 17:49 | 27.28891 | -80.72623 | 19365 ft | 363 kts | 337° |
| 2026-04-25 17:49 | 27.31256 | -80.73619 | 19371 ft | 361 kts | 337° |
| 2026-04-25 17:50 | 27.33605 | -80.74607 | 19366 ft | 360 kts | 338° |
| 2026-04-25 17:50 | 27.35951 | -80.75594 | 19368 ft | 360 kts | 338° |
| 2026-04-25 17:50 | 27.38286 | -80.76578 | 19365 ft | 360 kts | 337° |
| 2026-04-25 17:50 | 27.40636 | -80.77583 | 19304 ft | 360 kts | 337° |
| 2026-04-25 17:51 | 27.42977 | -80.78597 | 19209 ft | 359 kts | 336° |
| 2026-04-25 17:51 | 27.45305 | -80.79613 | 19079 ft | 359 kts | 336° |
| 2026-04-25 17:51 | 27.47628 | -80.80628 | 18880 ft | 358 kts | 337° |
| 2026-04-25 17:51 | 27.49927 | -80.81629 | 18649 ft | 357 kts | 337° |
| 2026-04-25 17:52 | 27.52239 | -80.82634 | 18426 ft | 356 kts | 336° |
| 2026-04-25 17:52 | 27.53019 | -80.82972 | 18348 ft | 355 kts | 337° |
| 2026-04-25 17:52 | 27.56844 | -80.84644 | 17925 ft | 353 kts | 336° |
| 2026-04-25 17:52 | 27.59091 | -80.85723 | 17659 ft | 351 kts | 334° |
| 2026-04-25 17:53 | 27.61308 | -80.86874 | 17400 ft | 349 kts | 333° |
| 2026-04-25 17:53 | 27.63496 | -80.88052 | 17143 ft | 348 kts | 332° |
| 2026-04-25 17:53 | 27.65679 | -80.89239 | 16880 ft | 346 kts | 332° |
| 2026-04-25 17:53 | 27.67846 | -80.90409 | 16627 ft | 345 kts | 333° |
| 2026-04-25 17:54 | 27.69989 | -80.91548 | 16387 ft | 344 kts | 333° |
| 2026-04-25 17:54 | 27.72145 | -80.92684 | 16133 ft | 342 kts | 333° |
| 2026-04-25 17:54 | 27.74308 | -80.93819 | 15885 ft | 341 kts | 333° |
| 2026-04-25 17:54 | 27.76457 | -80.94944 | 15640 ft | 340 kts | 333° |
| 2026-04-25 17:55 | 27.78603 | -80.96066 | 15399 ft | 338 kts | 333° |
| 2026-04-25 17:55 | 27.80730 | -80.97181 | 15153 ft | 337 kts | 333° |
| 2026-04-25 17:55 | 27.82853 | -80.98293 | 14914 ft | 336 kts | 333° |
| 2026-04-25 17:55 | 27.84968 | -80.99403 | 14680 ft | 335 kts | 334° |
| 2026-04-25 17:56 | 27.87077 | -81.00512 | 14444 ft | 333 kts | 334° |
| 2026-04-25 17:56 | 27.89176 | -81.01617 | 14211 ft | 332 kts | 334° |
| 2026-04-25 17:56 | 27.91274 | -81.02719 | 13980 ft | 331 kts | 334° |
| 2026-04-25 17:56 | 27.93362 | -81.03817 | 13744 ft | 330 kts | 334° |
| 2026-04-25 17:57 | 27.95477 | -81.04834 | 13482 ft | 330 kts | 337° |
| 2026-04-25 17:57 | 27.97620 | -81.05757 | 13214 ft | 329 kts | 338° |
| 2026-04-25 17:57 | 27.99740 | -81.06623 | 12962 ft | 328 kts | 339° |
| 2026-04-25 17:57 | 28.00465 | -81.06917 | 12877 ft | 328 kts | 339° |
| 2026-04-25 17:58 | 28.04033 | -81.08371 | 12455 ft | 327 kts | 339° |
| 2026-04-25 17:58 | 28.06147 | -81.09249 | 12207 ft | 326 kts | 338° |
| 2026-04-25 17:58 | 28.08289 | -81.10146 | 11955 ft | 325 kts | 338° |
| 2026-04-25 17:58 | 28.10406 | -81.11054 | 11705 ft | 324 kts | 338° |
| 2026-04-25 17:59 | 28.12503 | -81.11979 | 11461 ft | 323 kts | 337° |
| 2026-04-25 17:59 | 28.14597 | -81.12913 | 11213 ft | 323 kts | 337° |
| 2026-04-25 17:59 | 28.16684 | -81.13844 | 10969 ft | 322 kts | 337° |
| 2026-04-25 17:59 | 28.18770 | -81.14770 | 10732 ft | 321 kts | 338° |
| 2026-04-25 18:00 | 28.20137 | -81.15374 | 10576 ft | 316 kts | 337° |
| 2026-04-25 18:00 | 28.22832 | -81.16567 | 10351 ft | 304 kts | 338° |
| 2026-04-25 18:00 | 28.24769 | -81.17421 | 10209 ft | 294 kts | 338° |
| 2026-04-25 18:00 | 28.26631 | -81.18199 | 10078 ft | 288 kts | 343° |
| 2026-04-25 18:01 | 28.28637 | -81.18554 | 9934 ft | 289 kts | 356° |
| 2026-04-25 18:01 | 28.30632 | -81.18594 | 9591 ft | 286 kts | 358° |
| 2026-04-25 18:01 | 28.32610 | -81.18626 | 9252 ft | 283 kts | 357° |
| 2026-04-25 18:01 | 28.34553 | -81.18658 | 8914 ft | 278 kts | 357° |
| 2026-04-25 18:02 | 28.36438 | -81.18691 | 8591 ft | 264 kts | 357° |
| 2026-04-25 18:02 | 28.38238 | -81.18723 | 8265 ft | 254 kts | 357° |
| 2026-04-25 18:02 | 28.39989 | -81.18755 | 7951 ft | 252 kts | 357° |
| 2026-04-25 18:02 | 28.41743 | -81.18777 | 7633 ft | 252 kts | 358° |
| 2026-04-25 18:03 | 28.43500 | -81.18791 | 7326 ft | 252 kts | 358° |
| 2026-04-25 18:03 | 28.44691 | -81.18799 | 7112 ft | 252 kts | 358° |
| 2026-04-25 18:03 | 28.46420 | -81.18808 | 6811 ft | 252 kts | 358° |
| 2026-04-25 18:03 | 28.48764 | -81.18814 | 6399 ft | 253 kts | 358° |
| 2026-04-25 18:04 | 28.49930 | -81.18822 | 6209 ft | 252 kts | 358° |
| 2026-04-25 18:04 | 28.51655 | -81.18841 | 6049 ft | 242 kts | 358° |
| 2026-04-25 18:04 | 28.53307 | -81.18866 | 5738 ft | 236 kts | 358° |
| 2026-04-25 18:04 | 28.54931 | -81.18895 | 5347 ft | 233 kts | 358° |
| 2026-04-25 18:05 | 28.56549 | -81.18929 | 4897 ft | 232 kts | 358° |
| 2026-04-25 18:05 | 28.58154 | -81.18964 | 4477 ft | 231 kts | 358° |
| 2026-04-25 18:05 | 28.59723 | -81.19288 | 4065 ft | 227 kts | 335° |
| 2026-04-25 18:05 | 28.61138 | -81.20026 | 3621 ft | 227 kts | 332° |
| 2026-04-25 18:06 | 28.62312 | -81.21199 | 3210 ft | 222 kts | 298° |
| 2026-04-25 18:06 | 28.62804 | -81.22835 | 2876 ft | 216 kts | 280° |
| 2026-04-25 18:06 | 28.63065 | -81.24458 | 2765 ft | 205 kts | 278° |
| 2026-04-25 18:06 | 28.63079 | -81.26024 | 2559 ft | 197 kts | 255° |
| 2026-04-25 18:07 | 28.62452 | -81.27393 | 2465 ft | 196 kts | 226° |
| 2026-04-25 18:07 | 28.61333 | -81.28245 | 2480 ft | 196 kts | 199° |
| 2026-04-25 18:07 | 28.59977 | -81.28429 | 2473 ft | 197 kts | 180° |
| 2026-04-25 18:07 | 28.58611 | -81.28409 | 2478 ft | 197 kts | 180° |
| 2026-04-25 18:08 | 28.57234 | -81.28391 | 2460 ft | 198 kts | 180° |
| 2026-04-25 18:08 | 28.55861 | -81.28376 | 2281 ft | 197 kts | 180° |
| 2026-04-25 18:08 | 28.54489 | -81.28361 | 2044 ft | 197 kts | 180° |
| 2026-04-25 18:08 | 28.53125 | -81.28347 | 1796 ft | 196 kts | 180° |
| 2026-04-25 18:09 | 28.51764 | -81.28334 | 1543 ft | 193 kts | 179° |
| 2026-04-25 18:09 | 28.50474 | -81.28320 | 1305 ft | 181 kts | 180° |
| 2026-04-25 18:09 | 28.49261 | -81.28308 | 1099 ft | 168 kts | 180° |
| 2026-04-25 18:09 | 28.48492 | -81.28300 | 955 ft | 161 kts | 180° |
| 2026-04-25 18:10 | 28.47062 | -81.28284 | 672 ft | 152 kts | 180° |
| 2026-04-25 18:10 | 28.46019 | -81.28274 | 410 ft | 148 kts | 179° |
| 2026-04-25 18:10 | 28.44998 | -81.28263 | 241 ft | 146 kts | 181° |
| 2026-04-25 18:10 | 28.43996 | -81.28255 | 106 ft | 137 kts | 181° |
| 2026-04-25 18:11 | 28.43131 | -81.28243 | 95 ft | 110 kts | 179° |
| 2026-04-25 18:11 | 28.42590 | -81.28238 | 100 ft | 39 kts | 180° |
| 2026-04-25 18:11 | 28.42364 | -81.28251 | 99 ft | 19 kts | 194° |
| 2026-04-25 18:11 | 28.42289 | -81.28334 | 97 ft | 11 kts | 275° |
| 2026-04-25 18:12 | 28.42331 | -81.28362 | 97 ft | 7 kts | 358° |
| 2026-04-25 18:12 | 28.42378 | -81.28363 | 96 ft | 7 kts | 359° |
| 2026-04-25 18:12 | 28.42422 | -81.28363 | 96 ft | 6 kts | 360° |
| 2026-04-25 18:12 | 28.42474 | -81.28364 | 97 ft | 9 kts | 357° |
| 2026-04-25 18:13 | 28.42494 | -81.28446 | 96 ft | 16 kts | 251° |
| 2026-04-25 18:13 | 28.42455 | -81.28573 | 98 ft | 17 kts | 252° |
| 2026-04-25 18:13 | 28.42414 | -81.28705 | 101 ft | 19 kts | 251° |
| 2026-04-25 18:14 | 28.42299 | -81.29081 | 96 ft | 30 kts | 255° |
| 2026-04-25 18:14 | 28.42284 | -81.29318 | 94 ft | 30 kts | 269° |
| 2026-04-25 18:14 | 28.42280 | -81.29555 | 94 ft | 30 kts | 270° |
| 2026-04-25 18:14 | 28.42281 | -81.29739 | 95 ft | 21 kts | 270° |
| 2026-04-25 18:15 | 28.42280 | -81.29907 | 95 ft | 21 kts | 269° |
| 2026-04-25 18:15 | 28.42277 | -81.30078 | 95 ft | 22 kts | 269° |
| 2026-04-25 18:15 | 28.42276 | -81.30255 | 94 ft | 23 kts | 269° |
| 2026-04-25 18:15 | 28.42270 | -81.30433 | 96 ft | 23 kts | 266° |
| 2026-04-25 18:16 | 28.42258 | -81.30616 | 98 ft | 23 kts | 265° |
| 2026-04-25 18:16 | 28.42245 | -81.30802 | 94 ft | 24 kts | 265° |
| 2026-04-25 18:16 | 28.42259 | -81.31186 | 97 ft | 25 kts | 278° |
| 2026-04-25 18:17 | 28.42268 | -81.31385 | 95 ft | 25 kts | 268° |
| 2026-04-25 18:17 | 28.42265 | -81.31580 | 97 ft | 25 kts | 270° |
| 2026-04-25 18:17 | 28.42266 | -81.31756 | 99 ft | 22 kts | 269° |
| 2026-04-25 18:17 | 28.42227 | -81.31845 | 101 ft | 12 kts | 194° |
| 2026-04-25 18:18 | 28.42135 | -81.31872 | 99 ft | 16 kts | 194° |
| 2026-04-25 18:18 | 28.42006 | -81.31879 | 98 ft | 21 kts | 181° |
| 2026-04-25 18:18 | 28.41848 | -81.31877 | 99 ft | 23 kts | 179° |
| 2026-04-25 18:18 | 28.41685 | -81.31879 | 99 ft | 24 kts | 180° |
| 2026-04-25 18:19 | 28.41537 | -81.31895 | 98 ft | 17 kts | 202° |
| 2026-04-25 18:19 | 28.41441 | -81.31911 | 98 ft | 15 kts | 178° |
| 2026-04-25 18:19 | 28.41350 | -81.31908 | 99 ft | 8 kts | 167° |
| 2026-04-25 18:19 | 28.41330 | -81.31853 | 98 ft | 9 kts | 91° |
| 2026-04-25 18:20 | 28.41331 | -81.31772 | 96 ft | 12 kts | 89° |
| 2026-04-25 18:20 | 28.41330 | -81.31674 | 94 ft | 7 kts | 91° |
| 2026-04-25 18:20 | 28.41332 | -81.31626 | 94 ft | 6 kts | 79° |
| 2026-04-25 18:20 | 28.41354 | -81.31587 | 95 ft | 6 kts | 41° |
| 2026-04-25 18:21 | 28.41387 | -81.31568 | 94 ft | 5 kts | 17° |
| 2026-04-25 18:21 | 28.41416 | -81.31563 | 94 ft | 4 kts | 7° |
| 2026-04-25 18:21 | 28.41441 | -81.31558 | 94 ft | 4 kts | 21° |
| 2026-04-25 18:21 | 28.41453 | -81.31533 | 94 ft | 4 kts | 82° |
| 2026-04-25 18:22 | 28.41451 | -81.31506 | 94 ft | 3 kts | 95° |
| 2026-04-25 18:22 | 28.41450 | -81.31488 | 96 ft | 3 kts | 95° |
| 2026-04-25 18:22 | 28.41449 | -81.31469 | 94 ft | 1 kts | 95° |
| 2026-04-25 18:22 | 28.41448 | -81.31464 | 94 ft | 0 kts | 95° |